createdAt,value
2022-08-26T00:02:32.000Z,0.88715
2022-08-26T00:07:34.112Z,0
2022-08-26T00:12:37.540Z,0
2022-08-26T00:17:40.279Z,0.88715
2022-08-26T00:22:42.062Z,0
2022-08-26T00:27:43.759Z,0
2022-08-26T00:32:46.393Z,0.88715
2022-08-26T00:37:48.284Z,0
2022-08-26T00:42:49.972Z,0
2022-08-26T00:47:51.758Z,0
2022-08-26T00:52:54.156Z,0.88715
2022-08-26T00:57:55.928Z,0
2022-08-26T01:02:58.514Z,0
2022-08-26T01:08:00.454Z,0
2022-08-26T01:13:05.136Z,0
2022-08-26T01:18:06.731Z,0
2022-08-26T01:23:08.732Z,0
2022-08-26T01:28:10.574Z,0
2022-08-26T01:33:12.246Z,0
2022-08-26T01:38:14.035Z,0
2022-08-26T01:43:15.462Z,0
2022-08-26T01:48:18.009Z,0.88715
2022-08-26T01:53:19.676Z,0
2022-08-26T01:58:23.454Z,0.88715
2022-08-26T02:03:25.482Z,0
2022-08-26T02:08:27.165Z,0.88715
2022-08-26T02:13:29.592Z,0.88715
2022-08-26T02:18:31.285Z,0.88715
2022-08-26T02:23:32.911Z,0.88715
2022-08-26T02:28:35.993Z,0
2022-08-26T02:33:37.658Z,0
2022-08-26T02:38:44.653Z,0
2022-08-26T02:43:47.826Z,0
2022-08-26T02:48:49.599Z,0
2022-08-26T02:53:51.204Z,0
2022-08-26T02:58:52.992Z,0
2022-08-26T03:03:55.971Z,0.88715
2022-08-26T03:08:57.853Z,0
2022-08-26T03:14:00.150Z,0.88715
2022-08-26T03:19:03.800Z,0
2022-08-26T03:24:05.630Z,0
2022-08-26T03:29:07.417Z,0
2022-08-26T03:34:09.389Z,0
2022-08-26T03:39:13.050Z,0
2022-08-26T03:44:15.239Z,0
2022-08-26T03:49:17.276Z,0.88715
2022-08-26T03:54:19.156Z,0.88715
2022-08-26T03:59:21.018Z,0.88715
2022-08-26T04:04:24.569Z,1.16185
2022-08-26T04:09:26.578Z,0.88885
2022-08-26T04:14:28.531Z,1.54065
2022-08-26T04:19:30.383Z,3.6147
2022-08-26T04:24:32.446Z,13.0941
2022-08-26T04:29:34.507Z,25.63485
2022-08-26T04:34:36.886Z,36.16565
2022-08-26T04:39:38.747Z,64.9723
2022-08-26T04:44:40.200Z,93.9634
2022-08-26T04:49:42.063Z,124.11635
2022-08-26T04:54:43.508Z,159.70965
2022-08-26T04:59:45.318Z,192.4259
2022-08-26T05:04:48.197Z,219.88625
2022-08-26T05:09:53.675Z,255.71915
2022-08-26T05:14:56.449Z,285.31875
2022-08-26T05:19:59.220Z,316.818
2022-08-26T05:25:01.118Z,350.27205
2022-08-26T05:30:02.894Z,376.20165
2022-08-26T05:35:08.908Z,401.28315
2022-08-26T05:40:10.920Z,425.8113
2022-08-26T05:45:12.779Z,462.45615
2022-08-26T05:50:14.623Z,483.3333
2022-08-26T05:55:16.451Z,513.13635
2022-08-26T06:00:19.915Z,546.0009
2022-08-26T06:05:22.630Z,580.45135
2022-08-26T06:10:31.580Z,624.6948
2022-08-26T06:15:35.238Z,657.3749
2022-08-26T06:20:37.275Z,681.05495
2022-08-26T06:25:38.752Z,711.52165
2022-08-26T06:30:40.602Z,733.8554
2022-08-26T06:35:42.604Z,749.21805
2022-08-26T06:40:44.267Z,771.97585
2022-08-26T06:45:45.938Z,790.6396
2022-08-26T06:50:49.918Z,800.9308
2022-08-26T06:55:52.021Z,831.21305
2022-08-26T07:00:54.005Z,853.5468
2022-08-26T07:05:56.115Z,872.395
2022-08-26T07:10:59.847Z,901.5154
2022-08-26T07:16:03.128Z,921.65475
2022-08-26T07:21:06.291Z,947.23445
2022-08-26T07:26:07.984Z,969.88195
2022-08-26T07:31:09.888Z,991.18315
2022-08-26T07:36:11.916Z,1015.3614
2022-08-26T07:41:14.047Z,1039.9827
2022-08-26T07:46:16.532Z,1058.79475
2022-08-26T07:51:18.560Z,1089.40975
2022-08-26T07:56:21.743Z,1108.77515
2022-08-26T08:01:24.044Z,1134.9272
2022-08-26T08:06:27.053Z,1157.3541
2022-08-26T08:11:29.529Z,1167.1851
2022-08-26T08:16:33.351Z,1194.07495
2022-08-26T08:21:36.836Z,1236.93595
2022-08-26T08:26:38.623Z,1263.4569
2022-08-26T08:31:56.983Z,1278.3042
2022-08-26T08:36:59.846Z,1286.47515
2022-08-26T08:42:01.652Z,1341.56315
2022-08-26T08:47:04.062Z,1374.63115
2022-08-26T08:52:05.695Z,1400.6539
2022-08-26T08:57:07.377Z,1431.21375
2022-08-26T09:02:09.011Z,1460.35315
2022-08-26T09:07:12.404Z,1495.9293
2022-08-26T09:12:13.957Z,1526.0461
2022-08-26T09:17:15.435Z,1565.3474
2022-08-26T09:22:18.141Z,1586.0591
2022-08-26T09:27:20.158Z,1643.52595
2022-08-26T09:32:22.608Z,1683.91495
2022-08-26T09:37:24.499Z,1708.77585
2022-08-26T09:42:25.971Z,1764.8774
2022-08-26T09:47:27.439Z,1760.56275
2022-08-26T09:52:29.907Z,1818.93285
2022-08-26T09:57:31.405Z,1838.0948
2022-08-26T10:02:34.592Z,1841.85795
2022-08-26T10:07:37.001Z,1909.7073
2022-08-26T10:12:38.455Z,1962.50775
2022-08-26T10:17:40.345Z,1961.05115
2022-08-26T10:22:42.008Z,2040.519
2022-08-26T10:27:52.668Z,2103.2969
2022-08-26T10:32:55.074Z,2116.22555
2022-08-26T10:37:57.145Z,2104.164
2022-08-26T10:42:59.052Z,2127.8992
2022-08-26T10:48:00.835Z,2190.62195
2022-08-26T10:53:02.947Z,2171.40485
2022-08-26T10:58:06.497Z,2246.63035
2022-08-26T11:03:22.518Z,2312.7455
2022-08-26T11:08:25.657Z,2321.6714
2022-08-26T11:13:27.511Z,2345.0187
2022-08-26T11:18:29.432Z,2441.8763
2022-08-26T11:23:31.388Z,2406.70705
2022-08-26T11:28:33.135Z,2441.4884
2022-08-26T11:33:35.134Z,2504.8558
2022-08-26T11:38:36.999Z,2377.4935
2022-08-26T11:43:38.882Z,2375.48355
2022-08-26T11:48:40.758Z,2374.85605
2022-08-26T11:53:42.562Z,2406.81735
2022-08-26T11:58:44.495Z,2440.3057
2022-08-26T12:03:45.982Z,2377.32435
2022-08-26T12:08:48.778Z,2401.05955
2022-08-26T12:13:50.243Z,2467.13855
2022-08-26T12:18:53.462Z,2374.375
2022-08-26T12:23:56.255Z,2366.1869
2022-08-26T12:28:58.168Z,1040.7664
2022-08-26T12:33:59.958Z,2289.02375
2022-08-26T12:39:02.047Z,980.8294
2022-08-26T12:44:03.548Z,2188.84235
2022-08-26T12:49:05.034Z,1676.75805
2022-08-26T12:54:06.695Z,1057.2186
2022-08-26T12:59:08.853Z,2187.2926
2022-08-26T13:04:12.689Z,2200.62445
2022-08-26T13:09:15.178Z,2151.78875
2022-08-26T13:14:23.833Z,2084.82365
2022-08-26T13:19:26.236Z,2010.53755
2022-08-26T13:24:28.241Z,1918.39965
2022-08-26T13:29:29.702Z,1810.47505
2022-08-26T13:34:32.359Z,1827.07185
2022-08-26T13:39:34.492Z,1794.3366
2022-08-26T13:44:36.045Z,1685.76735
2022-08-26T13:49:37.681Z,1367.1906
2022-08-26T13:54:39.346Z,1496.3098
2022-08-26T13:59:40.847Z,1393.9187
2022-08-26T14:04:42.338Z,1296.0077
2022-08-26T14:09:44.196Z,1287.3404
2022-08-26T14:14:45.665Z,1270.76075
2022-08-26T14:19:47.700Z,1200.40325
2022-08-26T14:24:49.520Z,1110.97695
2022-08-26T14:29:51.295Z,978.9121
2022-08-26T14:34:53.042Z,765.73095
2022-08-26T14:39:55.202Z,803.54505
2022-08-26T14:44:57.063Z,743.84765
2022-08-26T14:49:58.853Z,641.603
2022-08-26T14:55:00.558Z,507.8401
2022-08-26T15:00:02.512Z,417.45355
2022-08-26T15:05:04.635Z,328.1056
2022-08-26T15:10:06.745Z,252.317
2022-08-26T15:15:08.652Z,201.23795
2022-08-26T15:20:10.690Z,197.4802
2022-08-26T15:25:12.642Z,116.4853
2022-08-26T15:30:14.425Z,102.836
2022-08-26T15:35:16.183Z,84.74275
2022-08-26T15:40:18.561Z,61.6712
2022-08-26T15:45:26.188Z,40.07525
2022-08-26T15:50:28.347Z,24.473
2022-08-26T15:55:30.244Z,15.4178
2022-08-26T16:00:32.097Z,4.96115
2022-08-26T16:05:33.912Z,2.84435
2022-08-26T16:10:35.937Z,1.00735
2022-08-26T16:15:37.837Z,1.16185
2022-08-26T16:20:39.628Z,0.88715
2022-08-26T16:25:52.086Z,0.88715
2022-08-26T16:30:53.816Z,0.88715
2022-08-26T16:35:55.676Z,0.88715
2022-08-26T16:40:57.740Z,0.88715
2022-08-26T16:45:59.578Z,0
2022-08-26T16:51:01.556Z,0
2022-08-26T16:56:03.705Z,0
2022-08-26T17:01:05.580Z,0.88715
2022-08-26T17:06:07.457Z,0
2022-08-26T17:11:09.413Z,0
2022-08-26T17:16:11.300Z,0
2022-08-26T17:21:13.098Z,0.88715
2022-08-26T17:26:15.042Z,0.88715
2022-08-26T17:31:16.898Z,0
2022-08-26T17:36:18.824Z,0
2022-08-26T17:41:21.019Z,0.88715
2022-08-26T17:46:22.793Z,0
2022-08-26T17:51:24.684Z,0.88715
2022-08-26T17:56:26.475Z,0.88715
2022-08-26T18:01:28.299Z,0
2022-08-26T18:06:30.014Z,0.88715
2022-08-26T18:11:32.271Z,0
2022-08-26T18:16:34.083Z,0
2022-08-26T18:21:35.938Z,0
2022-08-26T18:26:37.812Z,0
2022-08-26T18:31:39.591Z,0
2022-08-26T18:36:41.367Z,0
2022-08-26T18:41:43.348Z,0
2022-08-26T18:46:44.789Z,0
2022-08-26T18:51:46.233Z,0
2022-08-26T18:56:47.928Z,0
2022-08-26T19:01:49.502Z,0
2022-08-26T19:06:52.326Z,0
2022-08-26T19:11:54.183Z,0
2022-08-26T19:16:55.727Z,0
2022-08-26T19:21:57.957Z,0.88715
2022-08-26T19:26:59.599Z,0
2022-08-26T19:32:01.287Z,0
2022-08-26T19:37:02.944Z,0.88715
2022-08-26T19:42:04.772Z,0
2022-08-26T19:47:06.448Z,0
2022-08-26T19:52:07.939Z,0.88715
2022-08-26T19:57:09.706Z,0.88715
2022-08-26T20:02:13.384Z,0
2022-08-26T20:07:18.777Z,0
2022-08-26T20:12:21.217Z,0.88715
2022-08-26T20:17:22.662Z,0.88715
2022-08-26T20:22:24.427Z,0.88715
2022-08-26T20:27:26.287Z,0
2022-08-26T20:32:39.703Z,0
2022-08-26T20:37:41.668Z,0
2022-08-26T20:42:43.656Z,0
2022-08-26T20:47:45.089Z,0
2022-08-26T20:52:46.779Z,0.88715
2022-08-26T20:57:48.611Z,0
2022-08-26T21:02:50.199Z,0
2022-08-26T21:07:52.085Z,0
2022-08-26T21:12:54.784Z,0
2022-08-26T21:17:56.668Z,0
2022-08-26T21:22:58.386Z,0
2022-08-26T21:28:00.165Z,0
2022-08-26T21:33:02.054Z,0
2022-08-26T21:38:03.829Z,0
2022-08-26T21:43:05.915Z,0.88715
2022-08-26T21:48:07.563Z,0
2022-08-26T21:53:09.560Z,0
2022-08-26T21:58:11.451Z,0
2022-08-26T22:03:13.347Z,0
2022-08-26T22:08:15.110Z,0
2022-08-26T22:13:17.076Z,0
2022-08-26T22:18:18.808Z,0.88715
2022-08-26T22:23:20.593Z,0
2022-08-26T22:28:22.344Z,0
2022-08-26T22:33:24.220Z,0
2022-08-26T22:38:25.997Z,0
2022-08-26T22:43:28.219Z,0.88715
2022-08-26T22:48:29.984Z,0
2022-08-26T22:53:32.743Z,0
2022-08-26T22:58:37.890Z,0
2022-08-26T23:03:40.121Z,0
2022-08-26T23:08:41.954Z,0.88715
2022-08-26T23:13:44.064Z,0
2022-08-26T23:18:45.669Z,0
2022-08-26T23:23:47.131Z,0.88715
2022-08-26T23:28:48.936Z,0
2022-08-26T23:33:50.415Z,0
2022-08-26T23:38:52.932Z,0.88715
2022-08-26T23:43:55.343Z,0
2022-08-26T23:48:57.087Z,0
2022-08-26T23:53:58.545Z,0.88715
2022-08-26T23:59:00.217Z,0.88715
